Lake Benton, Minnesota
Current Conditions -  °F | °C
As of 3:14 PM on Monday 22 Dec 2014 (Local Time) from KPQN Reporting Station
Unknown Precip Unknown Precip  
Wind Chill: 31°   Ceiling: 300
Heat Index: 37°   Visibility: 1.2mi
Dew Point: 37°   Wind: 8mph
Humidity: 100%   Direction: 150°SSE
Pressure: 29.4"   Gusts: NA
Location:  44.26°N, 96.29°W
Report Text: KPQN 222114Z AUTO 15007KT 1 1/4SM UP OVC003 03/03 A2940 RMK AO2
Loading
Personal Weather Stations






























Interactive Weather Map New forecast layout! Learn more

10-Day Weather Forecast

Advertisements
Track Severe Weather on mobile